Time;durP1;ratioP1;P1;durP2;ratioP2;P2;SDS_P1;SDS_P2;PMS_P1;PMS_P2;Temp;Humidity;BMP_temperature;BMP_pressure;BME280_temperature;BME280_humidity;BME280_pressure;Samples;Min_cycle;Max_cycle;Signal;HPM_P1;HPM_P2
2022/01/22 00:01:02;;;;;;;11.40;5.30;;;;;;;7.55;77.29;103321.78;7389472;19;20011;-68
2022/01/22 00:03:34;;;;;;;10.07;4.82;;;;;;;7.52;77.69;103319.31;7390369;19;20014;-67
2022/01/22 00:06:06;;;;;;;10.82;4.97;;;;;;;7.51;78.15;103316.78;7393556;19;20014;-68
2022/01/22 00:08:34;;;;;;;11.88;4.88;;;;;;;7.48;77.99;103316.91;7388754;19;20014;-66
2022/01/22 00:11:02;;;;;;;9.45;4.90;;;;;;;7.44;77.90;103312.72;7391579;19;20010;-68
2022/01/22 00:16:12;;;;;;;13.05;5.50;;;;;;;7.39;78.31;103310.31;7390722;19;20430;-67
2022/01/22 00:18:41;;;;;;;12.15;5.38;;;;;;;7.37;78.28;103313.91;7391065;19;20026;-67
2022/01/22 00:21:09;;;;;;;8.88;4.93;;;;;;;7.36;77.97;103309.63;7393606;19;20044;-67
2022/01/22 00:23:48;;;;;;;12.45;5.18;;;;;;;7.34;78.43;103312.31;7390414;19;20043;-66
2022/01/22 00:26:30;;;;;;;9.85;4.78;;;;;;;7.29;78.27;103307.28;7387510;19;20010;-67
2022/01/22 00:28:58;;;;;;;11.93;4.77;;;;;;;7.27;78.76;103306.50;7389446;19;20011;-66
2022/01/22 00:31:28;;;;;;;10.90;4.57;;;;;;;7.24;78.79;103300.56;7389151;19;20480;-67
2022/01/22 00:34:00;;;;;;;12.65;5.53;;;;;;;7.22;78.61;103299.75;7389736;19;20014;-67
2022/01/22 00:36:27;;;;;;;8.63;4.72;;;;;;;7.18;78.75;103298.22;7391340;19;20025;-68
2022/01/22 00:38:55;;;;;;;11.45;5.40;;;;;;;7.18;78.84;103303.44;7390551;19;20472;-66
2022/01/22 00:41:25;;;;;;;11.10;5.43;;;;;;;7.16;78.68;103300.06;7388748;19;20015;-68
2022/01/22 00:43:54;;;;;;;12.73;5.30;;;;;;;7.12;78.68;103294.09;7391840;19;20530;-67
2022/01/22 00:46:32;;;;;;;12.57;4.97;;;;;;;7.12;79.02;103301.94;7387450;19;20006;-66
2022/01/22 00:49:02;;;;;;;10.38;4.80;;;;;;;7.09;79.14;103294.25;7390478;19;20400;-68
2022/01/22 00:51:30;;;;;;;11.10;4.82;;;;;;;7.07;79.19;103293.44;7388161;19;20014;-67
2022/01/22 00:53:57;;;;;;;13.30;5.95;;;;;;;7.03;79.34;103291.91;7388831;19;20472;-67
2022/01/22 00:56:26;;;;;;;9.88;5.10;;;;;;;7.04;79.28;103295.38;7390509;19;20018;-68
2022/01/22 00:59:01;;;;;;;11.38;5.38;;;;;;;7.02;79.61;103294.56;7390520;19;20115;-67
2022/01/22 01:01:29;;;;;;;11.05;5.00;;;;;;;7.01;79.42;103293.72;7390831;19;20007;-66
2022/01/22 01:04:02;;;;;;;10.95;5.35;;;;;;;7.01;79.62;103288.50;7392006;19;20014;-67
2022/01/22 01:06:30;;;;;;;12.07;5.78;;;;;;;7.01;79.50;103291.09;7391890;19;20014;-67
2022/01/22 01:09:00;;;;;;;14.73;5.38;;;;;;;6.98;79.53;103291.25;7392666;19;20038;-68
2022/01/22 01:11:32;;;;;;;11.65;4.95;;;;;;;6.97;79.71;103281.69;7388098;19;20010;-66
2022/01/22 01:14:02;;;;;;;13.00;5.80;;;;;;;6.95;79.71;103282.69;7389638;19;20487;-68
2022/01/22 01:35:30;;;;;;;12.50;5.15;;;;;;;6.83;79.94;103265.78;7387597;19;20022;-66
2022/01/22 01:38:02;;;;;;;11.38;5.25;;;;;;;6.81;79.85;103264.97;7386153;19;20011;-67
2022/01/22 01:40:42;;;;;;;12.85;5.22;;;;;;;6.79;79.92;103266.81;7387202;19;20106;-67
2022/01/22 01:43:20;;;;;;;11.70;4.95;;;;;;;6.74;80.03;103264.41;7381239;19;20391;-67
2022/01/22 01:45:58;;;;;;;10.45;5.32;;;;;;;6.71;80.24;103255.84;7387871;19;20034;-68
2022/01/22 01:48:29;;;;;;;13.82;5.55;;;;;;;6.71;80.45;103261.06;7390951;19;20015;-67
2022/01/22 01:50:58;;;;;;;13.07;5.18;;;;;;;6.68;80.76;103261.22;7389361;19;20106;-67
2022/01/22 01:57:24;;;;;;;11.20;5.82;;;;;;;6.68;80.89;103263.81;7384614;19;20067;-67
2022/01/22 01:59:04;;;;;;;14.70;5.07;;;;;;;6.68;81.23;103258.59;7392750;19;20011;-67
2022/01/22 02:01:32;;;;;;;12.73;5.45;;;;;;;6.67;81.59;103260.34;7387476;19;20403;-69
2022/01/22 02:04:14;;;;;;;11.55;5.15;;;;;;;6.69;81.26;103261.16;7388717;19;20019;-71
2022/01/22 02:06:41;;;;;;;14.77;5.22;;;;;;;6.71;80.99;103259.31;7390425;19;20017;-67
2022/01/22 02:09:13;;;;;;;11.15;5.10;;;;;;;6.71;80.77;103261.06;7391364;19;20082;-68
2022/01/22 02:11:58;;;;;;;12.60;5.70;;;;;;;6.69;80.75;103269.00;7391719;19;20014;-65
2022/01/22 02:25:39;;;;;;;12.48;6.07;;;;;;;6.65;80.69;103271.81;7394366;19;20697;-66
2022/01/22 02:28:11;;;;;;;11.32;5.20;;;;;;;6.63;81.07;103271.03;7392019;19;20074;-67
2022/01/22 02:30:55;;;;;;;11.48;4.70;;;;;;;6.61;81.17;103265.84;7390342;19;20312;-66
2022/01/22 02:33:46;;;;;;;15.82;5.60;;;;;;;6.60;81.46;103264.19;7393967;19;20362;-66
2022/01/22 02:36:34;;;;;;;10.10;4.63;;;;;;;6.56;80.92;103264.34;7392220;19;20381;-65
2022/01/22 02:39:10;;;;;;;10.95;5.05;;;;;;;6.53;81.23;103267.97;7390960;19;20051;-67
2022/01/22 02:41:43;;;;;;;12.15;5.20;;;;;;;6.55;81.39;103268.75;7391333;19;20010;-67
2022/01/22 02:44:21;;;;;;;8.88;5.00;;;;;;;6.56;81.51;103265.19;7393850;19;20026;-67
2022/01/22 02:46:50;;;;;;;11.65;5.07;;;;;;;6.53;81.36;103254.03;7391333;19;20021;-67
2022/01/22 02:49:18;;;;;;;8.13;4.68;;;;;;;6.51;81.55;103261.09;7390862;19;20074;-67
2022/01/22 02:51:45;;;;;;;9.45;5.05;;;;;;;6.50;81.37;103249.81;7391350;19;20021;-69
2022/01/22 02:54:13;;;;;;;10.25;4.68;;;;;;;6.49;81.29;103245.47;7388284;19;20441;-68
2022/01/22 02:56:40;;;;;;;10.95;4.82;;;;;;;6.47;81.25;103244.69;7384186;19;20582;-66
2022/01/22 02:59:08;;;;;;;9.15;4.10;;;;;;;6.44;81.12;103237.84;7388096;19;20297;-67
2022/01/22 03:01:37;;;;;;;15.07;6.97;;;;;;;6.45;81.65;103252.59;7390339;19;20389;-68
2022/01/22 03:04:06;;;;;;;10.75;5.32;;;;;;;6.42;81.58;103237.03;7394263;19;20006;-67
2022/01/22 03:06:33;;;;;;;9.60;4.40;;;;;;;6.39;81.29;103229.34;7389812;19;20006;-69
2022/01/22 03:09:00;;;;;;;12.00;5.13;;;;;;;6.36;81.30;103228.59;7393513;19;20026;-66
2022/01/22 03:11:30;;;;;;;14.05;6.68;;;;;;;6.37;82.19;103233.78;7388719;19;20468;-67
2022/01/22 03:19:07;;;;;;;11.25;5.43;;;;;;;6.41;84.33;103232.72;7390728;19;20074;-68
2022/01/22 03:21:44;;;;;;;17.65;8.82;;;;;;;6.38;84.03;103232.03;7390379;19;20006;-67
2022/01/22 03:29:34;;;;;;;10.95;5.00;;;;;;;6.30;82.23;103244.53;7385682;19;20006;-68
2022/01/22 03:32:03;;;;;;;8.52;4.95;;;;;;;6.28;81.91;103249.84;7391082;19;20032;-67
2022/01/22 03:34:39;;;;;;;10.65;5.40;;;;;;;6.29;83.26;103251.56;7390765;19;20014;-66
2022/01/22 03:37:07;;;;;;;10.38;4.70;;;;;;;6.31;82.84;103243.63;7387868;19;20011;-66
2022/01/22 03:39:36;;;;;;;11.07;4.93;;;;;;;6.27;81.91;103236.84;7386273;19;20007;-66
2022/01/22 03:42:05;;;;;;;8.75;4.05;;;;;;;6.30;82.07;103240.16;7388620;19;20034;-68
2022/01/22 03:44:34;;;;;;;7.68;4.53;;;;;;;6.30;81.46;103250.63;7386135;19;20078;-67
2022/01/22 03:47:15;;;;;;;10.23;4.72;;;;;;;6.31;82.31;103251.47;7388402;19;20018;-67
2022/01/22 03:49:47;;;;;;;11.25;5.10;;;;;;;6.32;82.21;103246.19;7388849;19;20015;-66
2022/01/22 03:52:17;;;;;;;11.35;4.60;;;;;;;6.31;81.94;103249.72;7387040;19;20015;-66
2022/01/22 03:54:45;;;;;;;9.38;4.13;;;;;;;6.34;81.78;103251.38;7391076;19;20019;-66
2022/01/22 03:57:12;;;;;;;10.18;4.25;;;;;;;6.36;81.25;103257.38;7386945;19;20427;-65
2022/01/22 03:59:40;;;;;;;9.20;4.18;;;;;;;6.37;81.60;103259.91;7381458;19;20656;-67
2022/01/22 04:04:51;;;;;;;9.65;4.55;;;;;;;6.38;81.21;103258.16;7391923;19;20027;-66
2022/01/22 04:10:23;;;;;;;9.73;4.18;;;;;;;6.40;81.06;103253.69;7389893;19;20010;-66
2022/01/22 04:15:28;;;;;;;9.63;4.63;;;;;;;6.43;81.39;103261.44;7386903;19;20078;-66
2022/01/22 04:28:42;;;;;;;8.85;4.72;;;;;;;6.51;82.03;103287.22;7386629;19;20101;-67
2022/01/22 04:31:10;;;;;;;10.40;5.22;;;;;;;6.53;82.91;103277.56;7383768;19;20559;-68
2022/01/22 04:33:38;;;;;;;7.90;4.30;;;;;;;6.55;82.12;103289.69;7387537;19;20003;-66
2022/01/22 04:36:11;;;;;;;9.23;3.95;;;;;;;6.55;82.15;103284.44;7389368;19;20011;-66
2022/01/22 04:38:40;;;;;;;13.60;5.18;;;;;;;6.58;82.19;103289.53;7384084;19;20344;-67
2022/01/22 04:41:07;;;;;;;9.48;5.30;;;;;;;6.59;82.24;103288.63;7390217;19;20014;-68
2022/01/22 04:43:38;;;;;;;7.03;4.00;;;;;;;6.60;81.77;103287.72;7385505;19;20016;-65
2022/01/22 04:56:29;;;;;;;7.40;4.05;;;;;;;6.63;80.51;103298.03;7384274;19;20014;-68
2022/01/22 04:58:56;;;;;;;9.38;4.00;;;;;;;6.64;80.58;103297.13;7388165;19;20087;-67
2022/01/22 05:01:28;;;;;;;8.23;3.83;;;;;;;6.68;80.26;103297.84;7382302;19;20039;-66
2022/01/22 05:03:55;;;;;;;9.70;4.28;;;;;;;6.67;80.46;103302.22;7385430;19;20432;-66
2022/01/22 05:06:26;;;;;;;9.32;4.28;;;;;;;6.70;80.65;103301.25;7388715;19;20090;-66
2022/01/22 05:08:53;;;;;;;7.85;4.03;;;;;;;6.70;80.20;103296.88;7385094;19;20006;-66
2022/01/22 05:11:24;;;;;;;6.57;3.47;;;;;;;6.73;80.47;103299.34;7383041;19;20021;-66
2022/01/22 05:13:52;;;;;;;7.90;3.60;;;;;;;6.74;80.26;103298.44;7385892;19;20042;-67
2022/01/22 05:16:20;;;;;;;7.65;3.75;;;;;;;6.75;80.24;103299.28;7384956;19;20007;-68
2022/01/22 05:18:54;;;;;;;7.75;3.75;;;;;;;6.76;80.33;103304.41;7386843;19;20099;-66
2022/01/22 05:21:23;;;;;;;7.32;3.60;;;;;;;6.80;80.33;103300.78;7387234;19;20011;-67
2022/01/22 05:23:52;;;;;;;7.75;3.38;;;;;;;6.83;80.19;103303.25;7391674;19;20090;-66
2022/01/22 05:29:15;;;;;;;9.35;5.20;;;;;;;6.91;82.10;103299.47;7392634;19;20006;-66
2022/01/22 05:37:09;;;;;;;10.98;4.05;;;;;;;6.83;80.00;103294.56;7395660;19;20022;-68
2022/01/22 05:39:37;;;;;;;8.57;3.92;;;;;;;6.81;80.55;103304.22;7393334;19;20021;-67
2022/01/22 05:42:07;;;;;;;7.72;4.05;;;;;;;6.84;80.73;103304.09;7392979;19;20436;-67
2022/01/22 05:44:35;;;;;;;9.00;4.20;;;;;;;6.86;80.51;103302.25;7392109;19;20603;-67
2022/01/22 05:47:05;;;;;;;12.52;4.28;;;;;;;6.88;80.93;103303.03;7389556;19;20090;-65
2022/01/22 05:49:39;;;;;;;6.13;3.17;;;;;;;6.88;80.54;103306.50;7388241;19;20021;-66
2022/01/22 05:52:10;;;;;;;13.80;4.28;;;;;;;6.92;80.35;103314.22;7392124;19;20309;-66
2022/01/22 05:59:55;;;;;;;9.95;5.10;;;;;;;6.94;80.98;103321.09;7394632;19;20451;-67
2022/01/22 06:02:22;;;;;;;9.60;4.03;;;;;;;6.94;80.68;103318.47;7394652;19;20063;-66
2022/01/22 06:04:50;;;;;;;9.52;4.88;;;;;;;6.97;80.81;103320.94;7388516;19;20076;-66
2022/01/22 06:07:18;;;;;;;7.50;4.25;;;;;;;6.99;81.02;103315.66;7390828;19;20022;-66
2022/01/22 06:15:00;;;;;;;9.30;4.32;;;;;;;7.06;80.54;103322.34;7394879;19;20010;-67
2022/01/22 06:17:28;;;;;;;7.65;4.40;;;;;;;7.02;80.36;103313.75;7388621;19;20341;-66
2022/01/22 06:20:15;;;;;;;11.30;4.45;;;;;;;7.02;80.31;103311.13;7395070;19;20018;-67
2022/01/22 06:22:42;;;;;;;9.00;5.20;;;;;;;7.04;80.61;103311.06;7394705;19;20436;-66
2022/01/22 06:25:10;;;;;;;7.18;4.45;;;;;;;7.09;80.83;103316.94;7393844;19;20011;-66
2022/01/22 06:27:37;;;;;;;11.18;5.45;;;;;;;7.13;81.63;103316.75;7390663;19;20026;-67
2022/01/22 06:30:05;;;;;;;8.32;4.50;;;;;;;7.18;81.61;103311.28;7394075;19;20049;-68
2022/01/22 06:32:32;;;;;;;11.32;4.95;;;;;;;7.18;80.82;103306.91;7391483;19;20019;-68
2022/01/22 06:34:59;;;;;;;9.02;4.57;;;;;;;7.21;80.92;103306.75;7389629;19;20013;-66
2022/01/22 06:37:27;;;;;;;8.45;4.18;;;;;;;7.21;80.51;103311.19;7387522;19;20007;-68
2022/01/22 06:42:35;;;;;;;8.00;4.50;;;;;;;7.23;80.23;103314.56;7394205;19;20011;-67
2022/01/22 06:45:08;;;;;;;10.32;4.50;;;;;;;7.23;80.06;103319.78;7388482;19;20014;-67
2022/01/22 06:47:36;;;;;;;10.30;3.85;;;;;;;7.24;80.09;103318.88;7390998;19;20028;-66
2022/01/22 06:50:04;;;;;;;8.52;4.40;;;;;;;7.23;79.77;103311.94;7388959;19;20014;-67
2022/01/22 06:52:32;;;;;;;8.68;4.50;;;;;;;7.25;80.07;103321.44;7391950;19;20038;-66
2022/01/22 06:54:59;;;;;;;8.65;4.38;;;;;;;7.26;79.88;103320.50;7392915;19;20846;-66
2022/01/22 06:57:27;;;;;;;8.90;4.53;;;;;;;7.27;79.77;103316.09;7387090;19;20097;-67
2022/01/22 07:00:04;;;;;;;8.30;4.18;;;;;;;7.29;79.52;103316.91;7392039;19;20018;-66
2022/01/22 07:02:34;;;;;;;8.60;4.07;;;;;;;7.31;80.13;103315.06;7391518;19;20025;-66
2022/01/22 07:05:01;;;;;;;8.68;4.80;;;;;;;7.31;80.06;103309.84;7388944;19;20015;-67
2022/01/22 07:07:28;;;;;;;13.98;7.13;;;;;;;7.36;80.50;103314.88;7387205;19;20011;-67
2022/01/22 07:09:55;;;;;;;11.00;4.57;;;;;;;7.37;80.73;103312.16;7390806;19;20010;-67
2022/01/22 07:12:23;;;;;;;7.55;4.20;;;;;;;7.38;80.30;103313.00;7393244;19;20007;-68
2022/01/22 07:14:50;;;;;;;54.10;18.88;;;;;;;7.40;80.80;103309.41;7390884;19;20082;-67
2022/01/22 07:17:18;;;;;;;9.80;5.00;;;;;;;7.44;81.17;103318.81;7385839;19;20017;-66
2022/01/22 07:19:46;;;;;;;11.68;4.97;;;;;;;7.46;80.51;103318.75;7389451;19;20054;-68
2022/01/22 07:24:50;;;;;;;9.48;4.80;;;;;;;7.47;79.90;103316.03;7391062;19;20360;-67
2022/01/22 07:27:17;;;;;;;13.65;6.50;;;;;;;7.49;79.93;103331.69;7390819;19;20070;-67
2022/01/22 07:29:44;;;;;;;8.40;4.57;;;;;;;7.49;79.98;103322.06;7392931;19;20389;-67
2022/01/22 07:32:17;;;;;;;9.73;4.55;;;;;;;7.52;79.63;103328.94;7390386;19;20078;-66
2022/01/22 07:34:45;;;;;;;9.80;5.00;;;;;;;7.53;79.99;103326.25;7391269;19;20444;-66
2022/01/22 07:37:12;;;;;;;11.93;5.28;;;;;;;7.54;79.70;103319.25;7389892;19;20018;-66
2022/01/22 07:39:39;;;;;;;11.90;6.32;;;;;;;7.53;79.57;103321.00;7382260;19;20022;-67
2022/01/22 07:42:11;;;;;;;9.82;5.10;;;;;;;7.52;79.75;103315.84;7388552;19;20099;-66
2022/01/22 07:44:39;;;;;;;8.85;4.82;;;;;;;7.56;80.04;103323.50;7385584;19;20654;-67
2022/01/22 07:47:09;;;;;;;10.85;5.38;;;;;;;7.58;79.66;103310.31;7386161;19;20006;-67
2022/01/22 07:49:37;;;;;;;10.77;4.65;;;;;;;7.58;79.63;103313.78;7386909;19;20011;-66
2022/01/22 07:52:04;;;;;;;10.65;4.40;;;;;;;7.61;78.90;103311.03;7392413;19;20015;-67
2022/01/22 07:54:33;;;;;;;9.50;4.50;;;;;;;7.65;78.85;103309.13;7389233;19;20042;-66
2022/01/22 07:57:02;;;;;;;9.82;4.47;;;;;;;7.63;79.04;103313.56;7388616;19;20034;-66
2022/01/22 07:59:31;;;;;;;10.65;4.75;;;;;;;7.61;78.78;103313.66;7391202;19;20053;-67
2022/01/22 08:01:58;;;;;;;7.75;4.25;;;;;;;7.62;78.70;103317.09;7389139;19;20003;-67
2022/01/22 08:04:26;;;;;;;9.77;4.80;;;;;;;7.63;78.77;103324.91;7388132;19;20014;-66
2022/01/22 08:06:57;;;;;;;9.55;4.90;;;;;;;7.63;78.88;103318.81;7389849;19;20401;-67
2022/01/22 08:09:25;;;;;;;8.95;4.80;;;;;;;7.64;78.75;103315.28;7387890;19;20018;-67
2022/01/22 08:11:53;;;;;;;8.60;4.70;;;;;;;7.67;78.44;103309.88;7385331;19;20007;-67
2022/01/22 08:14:25;;;;;;;12.00;5.07;;;;;;;7.68;78.69;103312.44;7388627;19;20034;-67
2022/01/22 08:17:09;;;;;;;8.68;4.45;;;;;;;7.67;78.66;103308.09;7388545;19;20022;-67
2022/01/22 08:19:38;;;;;;;8.90;5.05;;;;;;;7.67;78.76;103304.63;7387528;19;20007;-67
2022/01/22 08:22:05;;;;;;;10.85;5.40;;;;;;;7.69;78.73;103303.66;7393139;19;20010;-67
2022/01/22 08:24:33;;;;;;;9.27;4.68;;;;;;;7.71;79.00;103304.44;7389598;19;20010;-67
2022/01/22 08:27:39;;;;;;;10.13;5.40;;;;;;;7.73;78.74;103299.97;7388831;19;20011;-67
2022/01/22 08:29:49;;;;;;;9.63;5.28;;;;;;;7.76;78.77;103303.38;7384400;19;20025;-67
2022/01/22 08:37:24;;;;;;;10.20;5.38;;;;;;;7.78;78.52;103301.50;7389019;19;20035;-66
2022/01/22 08:39:53;;;;;;;8.90;5.22;;;;;;;7.76;78.80;103298.97;7388427;19;20510;-66
2022/01/22 08:42:21;;;;;;;12.10;5.85;;;;;;;7.78;77.95;103297.13;7384375;19;20014;-68
2022/01/22 08:44:48;;;;;;;10.15;5.70;;;;;;;7.80;77.78;103307.53;7389963;19;20010;-67
2022/01/22 08:47:16;;;;;;;10.52;5.72;;;;;;;7.80;77.64;103316.25;7387019;19;19999;-67
2022/01/22 08:49:46;;;;;;;12.52;5.70;;;;;;;7.81;77.77;103299.59;7390316;19;20082;-67
2022/01/22 08:52:25;;;;;;;11.98;7.00;;;;;;;7.80;77.91;103310.16;7386244;19;20018;-67
2022/01/22 08:54:54;;;;;;;13.93;6.47;;;;;;;7.80;78.09;103312.78;7391308;19;20018;-66
2022/01/22 08:57:25;;;;;;;16.35;8.50;;;;;;;7.81;78.27;103312.72;7394420;19;20035;-67
2022/01/22 08:59:57;;;;;;;12.05;6.93;;;;;;;7.84;77.88;103316.94;7395918;19;20018;-67
2022/01/22 09:02:25;;;;;;;11.48;6.85;;;;;;;7.86;77.60;103326.44;7390970;19;20110;-66
2022/01/22 09:04:53;;;;;;;14.15;6.65;;;;;;;7.86;76.84;103328.22;7398794;19;20102;-69
2022/01/22 09:07:21;;;;;;;15.32;7.47;;;;;;;7.84;77.02;103330.91;7392680;19;20040;-67
2022/01/22 09:09:49;;;;;;;15.43;7.55;;;;;;;7.89;77.41;103333.28;7392934;19;20030;-67
2022/01/22 09:12:18;;;;;;;13.02;6.72;;;;;;;7.90;77.23;103338.47;7387736;19;20726;-65
2022/01/22 09:14:46;;;;;;;12.98;6.68;;;;;;;7.90;77.26;103337.63;7395663;19;20039;-67
2022/01/22 09:17:14;;;;;;;24.20;12.27;;;;;;;7.89;77.56;103335.91;7392891;19;20015;-67
2022/01/22 09:19:46;;;;;;;18.50;9.27;;;;;;;7.88;77.69;103353.41;7395365;19;20014;-67
2022/01/22 09:22:15;;;;;;;13.60;7.68;;;;;;;7.91;77.76;103345.41;7394746;19;20226;-66
2022/01/22 09:24:44;;;;;;;14.13;7.25;;;;;;;7.91;77.29;103344.56;7394662;19;20439;-67
2022/01/22 09:27:15;;;;;;;15.07;8.05;;;;;;;7.94;77.50;103329.53;7394190;19;20027;-68
2022/01/22 09:29:44;;;;;;;13.52;7.60;;;;;;;7.96;77.20;103345.19;7393754;19;20038;-67
2022/01/22 09:32:12;;;;;;;14.07;7.93;;;;;;;7.96;77.18;103343.44;7391789;19;20034;-66
2022/01/22 09:34:40;;;;;;;12.65;7.75;;;;;;;7.99;76.70;103331.94;7395894;19;20010;-66
2022/01/22 09:37:08;;;;;;;16.27;8.07;;;;;;;7.99;77.09;103342.41;7394725;19;20003;-66
2022/01/22 09:39:37;;;;;;;12.02;7.07;;;;;;;8.02;76.74;103337.06;7390525;19;20014;-67
2022/01/22 09:42:09;;;;;;;13.65;7.28;;;;;;;8.02;76.86;103344.91;7390481;19;20479;-65
2022/01/22 09:44:41;;;;;;;13.55;8.38;;;;;;;8.04;76.06;103357.00;7389369;19;20459;-67
2022/01/22 09:47:10;;;;;;;14.43;7.70;;;;;;;8.00;76.06;103342.34;7390615;19;20042;-66
2022/01/22 09:49:37;;;;;;;18.00;8.85;;;;;;;7.98;76.46;103344.19;7390093;19;20062;-67
2022/01/22 09:52:06;;;;;;;22.70;10.52;;;;;;;7.99;77.51;103356.38;7393135;19;20101;-66
2022/01/22 09:54:34;;;;;;;16.77;8.93;;;;;;;8.02;77.53;103358.03;7392791;19;20463;-67
2022/01/22 09:57:04;;;;;;;22.40;10.98;;;;;;;8.04;77.66;103364.03;7389235;19;20154;-66
2022/01/22 09:59:32;;;;;;;16.65;8.25;;;;;;;8.06;77.03;103355.19;7393798;19;20453;-65
2022/01/22 10:02:13;;;;;;;14.27;8.52;;;;;;;8.10;76.13;103364.59;7389528;19;20401;-66
2022/01/22 10:04:48;;;;;;;14.20;8.85;;;;;;;8.12;76.39;103352.25;7388600;19;20078;-67
2022/01/22 10:07:22;;;;;;;15.50;8.63;;;;;;;8.15;76.65;103354.72;7390069;19;20135;-65
2022/01/22 10:10:06;;;;;;;15.23;8.57;;;;;;;8.16;76.34;103342.47;7391503;19;20381;-69
2022/01/22 10:12:52;;;;;;;16.52;9.23;;;;;;;8.17;75.84;103341.53;7397182;19;20345;-66
2022/01/22 10:15:21;;;;;;;16.15;8.32;;;;;;;8.18;75.75;103338.81;7396427;19;20363;-67
2022/01/22 10:17:56;;;;;;;12.07;7.57;;;;;;;8.21;75.38;103348.34;7390635;19;20011;-68
2022/01/22 10:20:32;;;;;;;13.70;8.10;;;;;;;8.23;75.93;103343.03;7397658;19;20024;-66
2022/01/22 10:23:03;;;;;;;15.93;7.97;;;;;;;8.22;75.16;103341.31;7394695;19;20082;-66
2022/01/22 10:25:37;;;;;;;17.73;9.50;;;;;;;8.23;75.37;103343.84;7396212;19;20278;-67
2022/01/22 10:28:15;;;;;;;16.10;9.63;;;;;;;8.30;76.64;103337.41;7392112;19;20014;-68
2022/01/22 10:30:46;;;;;;;15.45;7.80;;;;;;;8.34;76.19;103340.72;7389573;19;20010;-66
2022/01/22 10:33:33;;;;;;;14.32;7.70;;;;;;;8.36;75.10;103336.28;7391874;19;20517;-66
2022/01/22 10:36:20;;;;;;;15.25;8.25;;;;;;;8.37;75.12;103343.22;7392795;19;20038;-66
2022/01/22 10:38:54;;;;;;;13.20;7.13;;;;;;;8.36;75.00;103352.00;7389945;19;20015;-67
2022/01/22 10:41:39;;;;;;;10.90;6.57;;;;;;;8.39;74.25;103343.97;7391156;19;20823;-68
2022/01/22 10:44:15;;;;;;;11.77;6.30;;;;;;;8.41;74.29;103342.13;7388686;19;20010;-67
2022/01/22 10:46:46;;;;;;;10.30;6.55;;;;;;;8.41;74.43;103337.75;7390478;19;20014;-67
2022/01/22 10:49:24;;;;;;;12.43;6.88;;;;;;;8.41;74.91;103332.50;7389053;19;20021;-67
2022/01/22 10:51:56;;;;;;;15.85;8.68;;;;;;;8.46;75.48;103332.25;7394329;19;20022;-67
2022/01/22 10:54:33;;;;;;;11.98;7.07;;;;;;;8.47;76.20;103336.59;7388577;19;20007;-67
2022/01/22 10:57:17;;;;;;;11.80;6.22;;;;;;;8.52;74.98;103335.44;7389444;19;20010;-67
2022/01/22 10:59:50;;;;;;;11.13;7.38;;;;;;;8.56;74.21;103334.34;7393206;19;20007;-68
2022/01/22 11:02:31;;;;;;;9.57;5.55;;;;;;;8.58;74.29;103332.47;7389150;19;20014;-69
2022/01/22 11:04:59;;;;;;;10.48;6.03;;;;;;;8.62;74.91;103341.06;7394169;19;20006;-68
2022/01/22 11:07:26;;;;;;;11.20;6.35;;;;;;;8.64;73.80;103333.94;7390026;19;20014;-68
2022/01/22 11:10:02;;;;;;;11.38;6.85;;;;;;;8.65;73.77;103327.78;7387146;19;20014;-69
2022/01/22 11:12:30;;;;;;;12.05;6.80;;;;;;;8.64;73.47;103326.06;7385149;19;20269;-68
2022/01/22 11:14:57;;;;;;;11.85;5.82;;;;;;;8.67;73.69;103331.19;7384870;19;20018;-67
2022/01/22 11:17:30;;;;;;;11.15;5.60;;;;;;;8.71;73.22;103330.09;7383017;19;20404;-67
2022/01/22 11:19:59;;;;;;;8.82;5.30;;;;;;;8.74;73.42;103323.81;7387508;19;20014;-66
2022/01/22 11:22:27;;;;;;;10.18;6.07;;;;;;;8.78;74.00;103321.00;7390650;19;20006;-67
2022/01/22 11:24:57;;;;;;;11.57;5.47;;;;;;;8.82;74.59;103314.66;7385797;19;20018;-68
2022/01/22 11:27:24;;;;;;;12.18;4.65;;;;;;;8.78;73.36;103315.75;7386357;19;20373;-68
2022/01/22 11:30:04;;;;;;;9.68;4.57;;;;;;;8.80;73.33;103320.88;7387755;19;20028;-67
2022/01/22 11:32:39;;;;;;;8.30;5.07;;;;;;;8.85;75.69;103326.75;7391742;19;20011;-66
2022/01/22 11:35:09;;;;;;;11.98;7.00;;;;;;;8.90;76.85;103320.34;7390596;19;20028;-66
2022/01/22 11:37:46;;;;;;;8.98;5.13;;;;;;;8.89;75.37;103316.00;7390961;19;20019;-67
2022/01/22 11:40:26;;;;;;;10.20;5.55;;;;;;;8.88;75.09;103321.34;7390551;19;20018;-67
2022/01/22 11:43:00;;;;;;;6.97;4.63;;;;;;;8.90;74.66;103315.09;7394488;19;20085;-67
2022/01/22 11:45:44;;;;;;;12.27;6.88;;;;;;;8.92;75.15;103315.00;7391075;19;20063;-67
2022/01/22 11:48:24;;;;;;;9.77;4.50;;;;;;;8.95;74.31;103318.31;7390833;19;20018;-68
2022/01/22 11:51:12;;;;;;;10.45;6.18;;;;;;;8.96;74.32;103316.53;7389910;19;20018;-66
2022/01/22 11:53:54;;;;;;;10.27;5.10;;;;;;;9.02;73.41;103317.06;7389472;19;20054;-66
2022/01/22 11:56:29;;;;;;;7.82;5.05;;;;;;;9.05;74.33;103320.44;7389247;19;20011;-67
2022/01/22 11:58:56;;;;;;;11.45;6.63;;;;;;;9.03;73.23;103320.56;7387973;19;20021;-67
2022/01/22 12:01:52;;;;;;;8.52;4.88;;;;;;;9.04;73.61;103327.47;7387383;19;20010;-67
2022/01/22 12:04:37;;;;;;;8.73;4.38;;;;;;;9.06;72.18;103324.78;7391751;19;20018;-66
2022/01/22 12:07:04;;;;;;;7.32;4.60;;;;;;;9.02;72.03;103318.84;7391750;19;20771;-67
2022/01/22 12:15:31;;;;;;;6.55;3.38;;;;;;;9.00;71.63;103320.69;7390837;19;20042;-68
2022/01/22 12:18:12;;;;;;;6.40;3.72;;;;;;;8.99;71.47;103314.59;7389799;19;20049;-66
2022/01/22 12:23:31;;;;;;;8.27;4.03;;;;;;;8.99;70.99;103326.88;7386150;19;20484;-67
2022/01/22 12:26:02;;;;;;;7.50;3.97;;;;;;;8.94;70.88;103315.75;7388165;19;20131;-68
2022/01/22 12:28:39;;;;;;;6.15;3.80;;;;;;;8.92;71.92;103329.00;7389349;19;20086;-67
2022/01/22 12:31:16;;;;;;;5.57;3.50;;;;;;;8.92;71.88;103323.75;7388308;19;20434;-67
2022/01/22 12:33:53;;;;;;;7.18;3.90;;;;;;;8.91;72.13;103331.69;7388566;19;20456;-67
2022/01/22 12:36:43;;;;;;;8.68;4.40;;;;;;;8.95;73.94;103320.94;7385898;19;20015;-67
2022/01/22 12:39:18;;;;;;;9.25;4.15;;;;;;;9.19;81.59;103320.59;7383083;19;20018;-67
2022/01/22 12:41:56;;;;;;;12.38;4.13;;;;;;;9.41;81.54;103319.34;7384104;19;20779;-68
2022/01/22 12:47:05;;;;;;;10.40;4.57;;;;;;;9.60;74.18;103318.34;7387729;19;20323;-67
2022/01/22 12:49:36;;;;;;;10.45;5.90;;;;;;;9.59;76.07;103322.75;7390864;19;20014;-68
2022/01/22 12:52:11;;;;;;;10.35;5.97;;;;;;;9.55;74.42;103326.44;7385081;19;20010;-67
2022/01/22 12:54:46;;;;;;;12.50;6.68;;;;;;;9.52;73.85;103323.16;7389650;19;20018;-67
2022/01/22 12:57:20;;;;;;;11.77;6.13;;;;;;;9.45;71.66;103330.53;7386262;19;20452;-68
2022/01/22 13:00:09;;;;;;;15.55;6.07;;;;;;;9.39;71.02;103336.13;7389204;19;20021;-67
2022/01/22 13:02:42;;;;;;;12.55;6.47;;;;;;;9.35;70.27;103327.53;7386493;19;20018;-66
2022/01/22 13:05:12;;;;;;;13.68;6.50;;;;;;;9.28;70.46;103330.59;7389424;19;20021;-66
2022/01/22 13:07:40;;;;;;;15.05;6.93;;;;;;;9.21;70.78;103323.97;7385521;19;20034;-67
2022/01/22 13:10:09;;;;;;;11.07;6.45;;;;;;;9.13;71.60;103321.75;7384523;19;20022;-68
2022/01/22 13:12:43;;;;;;;11.93;6.25;;;;;;;9.10;71.58;103323.69;7387548;19;20011;-67
2022/01/22 13:15:18;;;;;;;14.85;6.95;;;;;;;9.11;72.18;103323.59;7384751;19;20013;-67
2022/01/22 13:17:51;;;;;;;13.13;7.88;;;;;;;9.11;72.71;103325.38;7386542;19;20018;-67
2022/01/22 13:20:20;;;;;;;14.45;6.13;;;;;;;9.10;72.18;103329.78;7388533;19;20011;-67
2022/01/22 13:22:54;;;;;;;13.50;6.35;;;;;;;9.07;72.76;103321.22;7384624;19;20090;-67
2022/01/22 13:25:26;;;;;;;13.20;7.07;;;;;;;9.06;74.15;103309.03;7387413;19;20028;-67
2022/01/22 13:28:12;;;;;;;12.57;6.70;;;;;;;9.06;72.91;103320.38;7386216;19;20031;-67
2022/01/22 13:30:54;;;;;;;12.80;6.72;;;;;;;9.08;73.98;103322.94;7383602;19;20013;-67
2022/01/22 13:33:39;;;;;;;10.90;6.88;;;;;;;9.04;72.38;103324.84;7386295;19;20317;-67
2022/01/22 13:49:41;;;;;;;18.67;7.93;;;;;;;8.87;72.35;103319.66;7392253;19;20042;-66
2022/01/22 13:52:16;;;;;;;12.85;8.23;;;;;;;8.86;72.35;103324.06;7394836;19;20023;-67
2022/01/22 13:54:52;;;;;;;18.75;8.57;;;;;;;8.86;72.65;103321.44;7393650;19;20006;-68
2022/01/22 13:57:22;;;;;;;13.65;7.75;;;;;;;8.82;72.53;103319.91;7391778;19;20017;-67
2022/01/22 13:59:55;;;;;;;13.43;7.70;;;;;;;8.82;72.79;103319.03;7392341;19;20098;-68